createdAt,value
2023-09-27T00:00:50.249Z,82.08
2023-09-27T00:03:17.041Z,81.94
2023-09-27T00:05:43.715Z,81.84
2023-09-27T00:08:11.724Z,81.87
2023-09-27T00:10:38.190Z,81.96
2023-09-27T00:13:04.990Z,81.93
2023-09-27T00:15:31.481Z,81.72
2023-09-27T00:17:59.156Z,81.71
2023-09-27T00:20:25.708Z,81.57
2023-09-27T00:22:52.273Z,81.50
2023-09-27T00:25:19.927Z,81.53
2023-09-27T00:27:46.672Z,81.57
2023-09-27T00:30:14.730Z,81.73
2023-09-27T00:32:42.776Z,82.16
2023-09-27T00:35:12.903Z,82.74
2023-09-27T00:37:39.504Z,83.08
2023-09-27T00:40:10.871Z,83.21
2023-09-27T00:42:37.800Z,83.18
2023-09-27T00:45:05.933Z,83.09
2023-09-27T00:47:34.319Z,83.10
2023-09-27T00:50:02.108Z,83.13
2023-09-27T00:52:28.950Z,83.15
2023-09-27T00:54:57.109Z,83.15
2023-09-27T00:57:23.806Z,83.21
2023-09-27T00:59:50.431Z,83.27
2023-09-27T01:02:18.046Z,83.37
2023-09-27T01:04:44.741Z,83.47
2023-09-27T01:07:11.380Z,83.46
2023-09-27T01:09:38.471Z,83.54
2023-09-27T01:12:05.760Z,83.69
2023-09-27T01:14:32.358Z,83.76
2023-09-27T01:17:10.085Z,83.63
2023-09-27T01:19:38.864Z,83.57
2023-09-27T01:22:05.623Z,83.69
2023-09-27T01:24:33.478Z,83.74
2023-09-27T01:27:00.087Z,83.84
2023-09-27T01:29:26.923Z,83.93
2023-09-27T01:31:53.548Z,84.06
2023-09-27T01:34:20.598Z,83.96
2023-09-27T01:36:47.300Z,83.87
2023-09-27T01:39:13.952Z,83.80
2023-09-27T01:41:40.483Z,83.73
2023-09-27T01:44:07.230Z,83.74
2023-09-27T01:46:33.855Z,83.76
2023-09-27T01:49:01.002Z,83.79
2023-09-27T01:51:27.739Z,83.80
2023-09-27T01:53:54.334Z,83.82
2023-09-27T01:56:20.867Z,83.80
2023-09-27T01:58:47.593Z,83.76
2023-09-27T02:01:14.224Z,83.75
2023-09-27T02:03:43.260Z,83.64
2023-09-27T02:06:09.936Z,83.66
2023-09-27T02:08:36.730Z,83.57
2023-09-27T02:11:03.673Z,83.72
2023-09-27T02:13:30.303Z,83.78
2023-09-27T02:15:57.037Z,83.64
2023-09-27T02:18:23.745Z,83.55
2023-09-27T02:20:50.203Z,83.44
2023-09-27T02:23:16.852Z,83.46
2023-09-27T02:25:43.558Z,83.67
2023-09-27T02:28:10.980Z,83.81
2023-09-27T02:30:38.737Z,83.66
2023-09-27T02:33:05.425Z,83.59
2023-09-27T02:35:32.223Z,83.68
2023-09-27T02:37:59.013Z,83.78
2023-09-27T02:40:25.956Z,83.93
2023-09-27T02:42:54.457Z,83.94
2023-09-27T02:45:21.104Z,83.98
2023-09-27T02:47:48.343Z,83.90
2023-09-27T02:50:15.405Z,83.83
2023-09-27T02:52:42.238Z,83.80
2023-09-27T02:55:12.393Z,83.68
2023-09-27T02:57:39.220Z,83.71
2023-09-27T03:00:06.906Z,83.71
2023-09-27T03:02:34.036Z,83.50
2023-09-27T03:05:00.987Z,83.48
2023-09-27T03:10:17.563Z,85.56
2023-09-27T03:12:47.069Z,84.16
2023-09-27T03:15:14.081Z,84.17
2023-09-27T03:17:43.023Z,84.29
2023-09-27T03:20:16.595Z,84.39
2023-09-27T03:22:43.385Z,84.46
2023-09-27T03:25:10.411Z,84.55
2023-09-27T03:27:37.456Z,84.60
2023-09-27T03:30:05.145Z,84.69
2023-09-27T03:32:33.428Z,84.53
2023-09-27T03:35:00.368Z,84.43
2023-09-27T03:37:27.382Z,84.49
2023-09-27T03:39:54.056Z,84.53
2023-09-27T03:42:20.842Z,84.64
2023-09-27T03:44:50.935Z,84.59
2023-09-27T03:47:17.804Z,84.65
2023-09-27T03:49:44.682Z,84.68
2023-09-27T03:52:12.142Z,84.69
2023-09-27T03:54:38.883Z,84.70
2023-09-27T03:57:05.930Z,84.72
2023-09-27T03:59:32.698Z,84.73
2023-09-27T04:02:00.353Z,84.63
2023-09-27T04:04:27.232Z,84.61
2023-09-27T04:06:54.366Z,84.52
2023-09-27T04:09:21.068Z,84.41
2023-09-27T04:11:47.562Z,84.27
2023-09-27T04:14:14.198Z,84.17
2023-09-27T04:16:41.061Z,84.14
2023-09-27T04:19:08.761Z,84.00
2023-09-27T04:21:35.312Z,83.86
2023-09-27T04:24:04.296Z,83.47
2023-09-27T04:26:30.911Z,83.18
2023-09-27T04:28:57.424Z,83.05
2023-09-27T04:31:24.692Z,82.79
2023-09-27T04:33:52.076Z,82.61
2023-09-27T04:36:18.747Z,82.47
2023-09-27T04:38:46.168Z,82.21
2023-09-27T04:41:16.790Z,81.99
2023-09-27T04:43:44.153Z,81.78
2023-09-27T04:46:14.108Z,81.63
2023-09-27T04:48:40.636Z,81.27
2023-09-27T04:51:07.518Z,81.24
2023-09-27T04:53:37.724Z,81.14
2023-09-27T04:56:07.339Z,81.11
2023-09-27T04:58:35.249Z,81.26
2023-09-27T05:01:03.946Z,81.44
2023-09-27T05:03:30.854Z,81.51
2023-09-27T05:05:57.622Z,81.61
2023-09-27T05:08:26.625Z,81.94
2023-09-27T05:10:53.293Z,82.11
2023-09-27T05:13:22.138Z,82.23
2023-09-27T05:15:49.715Z,82.31
2023-09-27T05:18:16.419Z,82.15
2023-09-27T05:20:44.486Z,81.25
2023-09-27T05:23:11.818Z,80.46
2023-09-27T05:25:38.940Z,80.40
2023-09-27T05:28:05.715Z,80.28
2023-09-27T05:30:32.709Z,80.22
2023-09-27T05:32:59.326Z,80.47
2023-09-27T05:35:26.070Z,80.49
2023-09-27T05:37:53.353Z,80.64
2023-09-27T05:40:19.956Z,79.93
2023-09-27T05:42:47.253Z,79.57
2023-09-27T05:45:14.103Z,79.77
2023-09-27T05:47:40.916Z,79.62
2023-09-27T05:50:14.689Z,78.50
2023-09-27T05:52:44.130Z,77.52
2023-09-27T05:55:10.819Z,77.41
2023-09-27T05:57:37.394Z,76.94
2023-09-27T06:00:15.751Z,76.58
2023-09-27T06:02:43.736Z,76.93
2023-09-27T06:05:10.486Z,76.93
2023-09-27T06:07:37.419Z,77.22
2023-09-27T06:10:06.517Z,77.18
2023-09-27T06:12:34.097Z,77.00
2023-09-27T06:15:00.682Z,76.56
2023-09-27T06:17:27.828Z,76.36
2023-09-27T06:19:55.507Z,75.66
2023-09-27T06:22:23.643Z,75.59
2023-09-27T06:24:50.163Z,75.59
2023-09-27T06:27:17.506Z,75.55
2023-09-27T06:29:44.210Z,75.02
2023-09-27T06:32:11.549Z,74.16
2023-09-27T06:34:38.810Z,72.69
2023-09-27T06:37:07.923Z,71.99
2023-09-27T06:39:34.582Z,72.24
2023-09-27T06:42:01.132Z,72.23
2023-09-27T06:44:27.841Z,72.34
2023-09-27T06:46:55.043Z,72.29
2023-09-27T06:49:21.580Z,72.77
2023-09-27T06:51:48.776Z,72.91
2023-09-27T06:54:15.581Z,73.07
2023-09-27T06:56:43.143Z,72.71
2023-09-27T06:59:10.355Z,71.51
2023-09-27T07:01:37.101Z,71.31
2023-09-27T07:04:04.701Z,71.11
2023-09-27T07:06:31.479Z,70.86
2023-09-27T07:08:58.398Z,71.07
2023-09-27T07:11:24.972Z,70.57
2023-09-27T07:13:52.598Z,70.01
2023-09-27T07:16:27.102Z,69.35
2023-09-27T07:18:54.291Z,68.84
2023-09-27T07:21:21.358Z,68.62
2023-09-27T07:23:49.971Z,68.92
2023-09-27T07:26:19.906Z,68.55
2023-09-27T07:28:46.803Z,68.94
2023-09-27T07:31:17.724Z,68.96
2023-09-27T07:33:46.047Z,67.99
2023-09-27T07:36:13.119Z,67.77
2023-09-27T07:38:40.148Z,67.63
2023-09-27T07:41:09.197Z,67.19
2023-09-27T07:43:36.896Z,67.16
2023-09-27T07:46:07.168Z,67.04
2023-09-27T07:48:35.808Z,66.19
2023-09-27T07:51:03.457Z,66.50
2023-09-27T07:53:30.388Z,65.56
2023-09-27T07:55:58.046Z,65.14
2023-09-27T07:58:24.921Z,65.16
2023-09-27T08:00:51.748Z,65.56
2023-09-27T08:03:19.919Z,64.33
2023-09-27T08:05:46.955Z,64.07
2023-09-27T08:08:17.240Z,64.21
2023-09-27T08:10:43.968Z,63.33
2023-09-27T08:13:12.192Z,63.61
2023-09-27T08:15:40.178Z,62.53
2023-09-27T08:18:07.668Z,62.18
2023-09-27T08:20:35.754Z,61.97
2023-09-27T08:23:03.423Z,62.02
2023-09-27T08:25:30.820Z,61.85
2023-09-27T08:27:57.571Z,61.72
2023-09-27T08:30:24.432Z,61.75
2023-09-27T08:32:52.084Z,61.56
2023-09-27T08:35:19.384Z,62.06
2023-09-27T08:37:46.308Z,60.72
2023-09-27T08:40:15.902Z,60.37
2023-09-27T08:42:43.532Z,60.89
2023-09-27T08:45:12.714Z,61.11
2023-09-27T08:47:41.859Z,60.90
2023-09-27T08:50:11.982Z,60.26
2023-09-27T08:52:38.922Z,60.29
2023-09-27T08:55:07.422Z,59.71
2023-09-27T08:57:34.292Z,59.21
2023-09-27T09:00:01.129Z,58.94
2023-09-27T09:02:28.004Z,59.35
2023-09-27T09:04:55.281Z,59.13
2023-09-27T09:07:21.848Z,58.45
2023-09-27T09:09:49.330Z,58.47
2023-09-27T09:12:34.968Z,58.94
2023-09-27T09:15:05.570Z,57.94
2023-09-27T09:17:35.669Z,57.84
2023-09-27T09:20:16.917Z,58.27
2023-09-27T09:22:49.880Z,58.53
2023-09-27T09:25:16.522Z,58.19
2023-09-27T09:27:45.644Z,58.23
2023-09-27T09:30:13.041Z,57.88
2023-09-27T09:32:57.863Z,57.22
2023-09-27T09:35:32.416Z,56.87
2023-09-27T09:38:00.363Z,56.91
2023-09-27T09:40:27.192Z,57.02
2023-09-27T09:42:53.858Z,57.25
2023-09-27T09:45:20.873Z,57.36
2023-09-27T09:47:47.699Z,56.71
2023-09-27T09:50:19.117Z,56.93
2023-09-27T09:52:57.982Z,56.50
2023-09-27T09:55:52.033Z,56.79
2023-09-27T09:58:31.986Z,56.17
2023-09-27T10:00:58.993Z,55.42
2023-09-27T10:03:28.053Z,55.37
2023-09-27T10:05:55.517Z,55.42
2023-09-27T10:08:23.715Z,54.96
2023-09-27T10:10:50.251Z,54.79
2023-09-27T10:13:18.816Z,54.69
2023-09-27T10:15:45.552Z,54.98
2023-09-27T10:18:24.413Z,55.50
2023-09-27T10:21:07.608Z,55.27
2023-09-27T10:23:58.206Z,54.48
2023-09-27T10:26:27.951Z,53.97
2023-09-27T10:29:04.092Z,52.56
2023-09-27T10:31:31.527Z,52.77
2023-09-27T10:33:58.124Z,53.18
2023-09-27T10:36:24.716Z,53.19
2023-09-27T10:38:51.375Z,52.42
2023-09-27T10:41:34.003Z,53.08
2023-09-27T10:44:02.450Z,52.95
2023-09-27T10:47:09.617Z,52.76
2023-09-27T10:49:39.834Z,52.65
2023-09-27T10:52:16.734Z,52.11
2023-09-27T10:54:44.294Z,51.71
2023-09-27T10:57:10.982Z,51.56
2023-09-27T10:59:37.518Z,51.71
2023-09-27T11:02:04.436Z,51.29
2023-09-27T11:04:33.111Z,51.40
2023-09-27T11:06:59.974Z,51.49
2023-09-27T11:09:27.696Z,51.67
2023-09-27T11:11:54.915Z,51.04
2023-09-27T11:14:28.550Z,51.10
2023-09-27T11:16:55.290Z,50.92
2023-09-27T11:19:29.178Z,50.43
2023-09-27T11:21:55.815Z,50.17
2023-09-27T11:24:22.777Z,50.24
2023-09-27T11:26:49.484Z,51.26
2023-09-27T11:29:16.833Z,50.15
2023-09-27T11:31:43.427Z,49.22
2023-09-27T11:34:17.063Z,49.59
2023-09-27T11:36:53.994Z,49.09
2023-09-27T11:39:28.429Z,48.95
2023-09-27T11:41:59.394Z,49.03
2023-09-27T11:44:27.043Z,48.84
2023-09-27T11:47:05.495Z,49.38
2023-09-27T11:49:33.354Z,49.25
2023-09-27T11:52:03.471Z,48.49
2023-09-27T11:54:30.378Z,47.71
2023-09-27T11:56:57.272Z,47.84
2023-09-27T11:59:24.286Z,47.25
2023-09-27T12:01:51.015Z,47.37
2023-09-27T12:04:19.560Z,47.06
2023-09-27T12:06:46.616Z,46.15
2023-09-27T12:09:15.024Z,45.45
2023-09-27T12:11:41.932Z,45.26
2023-09-27T12:14:08.670Z,46.23
2023-09-27T12:16:35.477Z,46.82
2023-09-27T12:19:03.334Z,46.31
2023-09-27T12:21:35.020Z,46.20
2023-09-27T12:24:03.102Z,46.51
2023-09-27T12:26:30.770Z,46.43
2023-09-27T12:28:57.871Z,46.54
2023-09-27T12:31:24.949Z,46.66
2023-09-27T12:33:51.883Z,46.64
2023-09-27T12:36:18.727Z,46.36
2023-09-27T12:38:45.376Z,45.78
2023-09-27T12:41:12.150Z,45.93
2023-09-27T12:43:40.251Z,45.30
2023-09-27T12:46:07.269Z,45.83
2023-09-27T12:48:35.249Z,46.13
2023-09-27T12:51:02.560Z,45.54
2023-09-27T12:53:30.291Z,45.22
2023-09-27T12:55:56.918Z,44.68
2023-09-27T12:58:23.578Z,44.69
2023-09-27T13:00:50.307Z,45.08
2023-09-27T13:03:17.099Z,45.06
2023-09-27T13:05:43.964Z,44.85
2023-09-27T13:08:10.758Z,44.96
2023-09-27T13:10:39.366Z,44.11
2023-09-27T13:13:05.931Z,43.82
2023-09-27T13:15:35.517Z,43.59
2023-09-27T13:18:02.833Z,43.46
2023-09-27T13:20:29.756Z,42.79
2023-09-27T13:22:56.387Z,42.80
2023-09-27T13:25:22.991Z,42.52
2023-09-27T13:27:49.680Z,41.60
2023-09-27T13:30:33.152Z,40.27
2023-09-27T13:33:03.488Z,40.76
2023-09-27T13:35:31.006Z,41.40
2023-09-27T13:37:59.138Z,41.13
2023-09-27T13:40:25.684Z,40.71
2023-09-27T13:42:52.337Z,40.54
2023-09-27T13:45:19.076Z,40.49
2023-09-27T13:47:46.783Z,39.73
2023-09-27T13:50:13.688Z,38.70
2023-09-27T13:52:41.221Z,38.77
2023-09-27T13:55:11.651Z,38.67
2023-09-27T13:57:41.631Z,38.28
2023-09-27T14:00:09.501Z,38.76
2023-09-27T14:02:36.582Z,38.64
2023-09-27T14:05:04.062Z,38.57
2023-09-27T14:07:31.872Z,38.47
2023-09-27T14:09:58.665Z,38.60
2023-09-27T14:12:25.416Z,38.83
2023-09-27T14:14:52.373Z,39.74
2023-09-27T14:17:19.790Z,40.14
2023-09-27T14:19:46.418Z,40.04
2023-09-27T14:22:13.772Z,40.02
2023-09-27T14:24:40.231Z,39.33
2023-09-27T14:27:07.853Z,39.53
2023-09-27T14:29:36.022Z,39.73
2023-09-27T14:32:06.641Z,40.06
2023-09-27T14:37:08.139Z,40.70
2023-09-27T14:39:35.617Z,40.72
2023-09-27T14:42:03.408Z,41.22
2023-09-27T14:44:31.419Z,41.09
2023-09-27T14:46:58.192Z,41.09
2023-09-27T14:49:25.322Z,40.94
2023-09-27T14:51:52.901Z,40.86
2023-09-27T14:54:19.578Z,41.35
2023-09-27T14:56:47.003Z,41.72
2023-09-27T14:59:13.586Z,41.56
2023-09-27T15:01:40.233Z,41.61
2023-09-27T15:04:07.454Z,42.24
2023-09-27T15:06:34.064Z,42.25
2023-09-27T15:09:00.729Z,42.12
2023-09-27T15:11:27.333Z,41.50
2023-09-27T15:13:54.387Z,41.76
2023-09-27T15:16:21.376Z,42.01
2023-09-27T15:18:48.398Z,42.86
2023-09-27T15:21:15.023Z,43.57
2023-09-27T15:23:42.139Z,43.92
2023-09-27T15:27:25.558Z,45.41
2023-09-27T15:29:52.960Z,45.55
2023-09-27T15:32:20.360Z,46.30
2023-09-27T15:34:49.263Z,47.09
2023-09-27T15:37:16.816Z,47.97
2023-09-27T15:39:44.245Z,48.79
2023-09-27T15:42:11.965Z,49.27
2023-09-27T15:44:40.129Z,49.57
2023-09-27T15:47:08.408Z,50.15
2023-09-27T15:49:36.230Z,50.52
2023-09-27T15:52:03.775Z,50.85
2023-09-27T15:54:31.139Z,51.40
2023-09-27T15:56:58.569Z,51.63
2023-09-27T15:59:26.067Z,51.86
2023-09-27T16:01:53.654Z,51.89
2023-09-27T16:04:21.101Z,51.90
2023-09-27T16:06:48.565Z,52.00
2023-09-27T16:09:16.651Z,52.15
2023-09-27T16:11:44.552Z,52.35
2023-09-27T16:14:13.252Z,52.55
2023-09-27T16:16:40.908Z,52.62
2023-09-27T16:19:11.120Z,52.75
2023-09-27T16:21:38.618Z,52.84
2023-09-27T16:24:06.302Z,52.88
2023-09-27T16:26:33.847Z,52.95
2023-09-27T16:29:01.763Z,53.23
2023-09-27T16:31:34.030Z,53.38
2023-09-27T16:34:02.348Z,53.33
2023-09-27T16:36:30.722Z,53.74
2023-09-27T16:38:58.345Z,54.33
2023-09-27T16:41:25.848Z,54.90
2023-09-27T16:43:53.550Z,55.28
2023-09-27T16:46:21.228Z,55.30
2023-09-27T16:48:49.201Z,55.83
2023-09-27T16:51:16.763Z,56.46
2023-09-27T16:53:44.475Z,56.55
2023-09-27T16:56:12.408Z,56.59
2023-09-27T16:58:39.932Z,57.08
2023-09-27T17:01:07.475Z,57.47
2023-09-27T17:03:35.091Z,57.35
2023-09-27T17:06:04.081Z,57.45
2023-09-27T17:08:31.495Z,57.92
2023-09-27T17:10:58.999Z,58.19
2023-09-27T17:13:26.507Z,57.92
2023-09-27T17:15:54.035Z,57.29
2023-09-27T17:18:21.613Z,56.81
2023-09-27T17:20:49.072Z,56.74
2023-09-27T17:23:16.485Z,56.60
2023-09-27T17:25:44.032Z,56.20
2023-09-27T17:28:13.612Z,55.96
2023-09-27T17:30:41.740Z,55.89
2023-09-27T17:33:09.384Z,55.79
2023-09-27T17:35:36.914Z,55.70
2023-09-27T17:38:04.614Z,55.52
2023-09-27T17:40:32.092Z,55.09
2023-09-27T17:42:59.634Z,54.87
2023-09-27T17:45:27.308Z,54.98
2023-09-27T17:47:54.810Z,54.41
2023-09-27T17:50:22.378Z,53.55
2023-09-27T17:52:50.122Z,53.32
2023-09-27T17:55:17.700Z,53.01
2023-09-27T17:57:45.147Z,53.09
2023-09-27T18:00:13.688Z,52.87
2023-09-27T18:02:41.613Z,52.06
2023-09-27T18:05:11.518Z,52.13
2023-09-27T18:07:38.997Z,51.71
2023-09-27T18:10:07.278Z,51.34
2023-09-27T18:12:34.691Z,51.10
2023-09-27T18:15:17.509Z,51.06
2023-09-27T18:17:53.318Z,51.03
2023-09-27T18:20:20.854Z,51.07
2023-09-27T18:22:48.274Z,51.22
2023-09-27T18:25:15.750Z,51.19
2023-09-27T18:27:43.392Z,51.16
2023-09-27T18:30:11.313Z,51.46
2023-09-27T18:32:38.826Z,51.56
2023-09-27T18:35:06.771Z,51.89
2023-09-27T18:37:34.649Z,51.97
2023-09-27T18:40:02.133Z,51.97
2023-09-27T18:42:29.543Z,51.97
2023-09-27T18:44:56.954Z,51.40
2023-09-27T18:47:24.623Z,51.74
2023-09-27T18:49:52.158Z,51.61
2023-09-27T18:52:19.799Z,51.85
2023-09-27T18:54:49.041Z,51.98
2023-09-27T18:57:16.616Z,52.03
2023-09-27T18:59:44.215Z,51.93
2023-09-27T19:02:11.846Z,51.95
2023-09-27T19:04:39.238Z,51.73
2023-09-27T19:07:06.882Z,51.65
2023-09-27T19:09:34.406Z,51.55
2023-09-27T19:12:01.965Z,51.74
2023-09-27T19:14:29.433Z,51.99
2023-09-27T19:16:57.103Z,52.00
2023-09-27T19:19:24.850Z,52.00
2023-09-27T19:21:52.925Z,51.89
2023-09-27T19:24:20.626Z,51.69
2023-09-27T19:26:48.156Z,51.66
2023-09-27T19:29:15.637Z,51.54
2023-09-27T19:31:43.177Z,51.47
2023-09-27T19:34:10.934Z,51.48
2023-09-27T19:36:38.518Z,51.45
2023-09-27T19:39:06.266Z,51.62
2023-09-27T19:41:33.830Z,51.47
2023-09-27T19:44:01.296Z,51.53
2023-09-27T19:46:29.057Z,51.59
2023-09-27T19:48:56.606Z,51.65
2023-09-27T19:51:27.748Z,51.54
2023-09-27T19:53:56.414Z,51.49
2023-09-27T19:56:24.211Z,51.56
2023-09-27T19:58:51.720Z,51.55
2023-09-27T20:01:27.463Z,51.41
2023-09-27T20:03:55.690Z,51.50
2023-09-27T20:06:23.597Z,51.49
2023-09-27T20:08:51.457Z,51.52
2023-09-27T20:11:18.881Z,51.53
2023-09-27T20:13:46.923Z,51.52
2023-09-27T20:16:14.552Z,51.34
2023-09-27T20:18:42.175Z,51.18
2023-09-27T20:21:09.729Z,51.13
2023-09-27T20:23:38.275Z,51.19
2023-09-27T20:26:06.633Z,51.26
2023-09-27T20:28:34.282Z,51.19
2023-09-27T20:31:02.066Z,51.37
2023-09-27T20:33:29.691Z,51.32
2023-09-27T20:35:57.178Z,51.37
2023-09-27T20:38:24.708Z,51.49
2023-09-27T20:40:52.200Z,51.75
2023-09-27T20:43:19.632Z,51.83
2023-09-27T20:45:47.131Z,52.18
2023-09-27T20:48:14.746Z,52.37
2023-09-27T20:50:42.341Z,52.58
2023-09-27T20:53:09.900Z,52.86
2023-09-27T20:55:37.511Z,52.62
2023-09-27T20:58:05.153Z,52.68
2023-09-27T21:00:32.757Z,52.93
2023-09-27T21:03:01.640Z,53.03
2023-09-27T21:05:33.928Z,53.13
2023-09-27T21:08:01.624Z,53.17
2023-09-27T21:10:29.148Z,53.13
2023-09-27T21:12:56.792Z,53.34
2023-09-27T21:15:24.470Z,53.40
2023-09-27T21:17:51.988Z,53.26
2023-09-27T21:20:19.387Z,53.36
2023-09-27T21:22:46.807Z,53.21
2023-09-27T21:25:14.707Z,53.25
2023-09-27T21:27:42.374Z,53.43
2023-09-27T21:30:10.881Z,53.63
2023-09-27T21:32:38.555Z,53.78
2023-09-27T21:35:07.163Z,53.92
2023-09-27T21:37:34.805Z,54.13
2023-09-27T21:40:02.370Z,54.11
2023-09-27T21:42:29.988Z,54.00
2023-09-27T21:44:57.757Z,53.89
2023-09-27T21:47:25.418Z,53.98
2023-09-27T21:49:52.838Z,54.12
2023-09-27T21:52:20.479Z,54.20
2023-09-27T21:54:48.046Z,54.46
2023-09-27T21:57:16.288Z,54.54
2023-09-27T21:59:43.839Z,54.71
2023-09-27T22:02:12.815Z,54.67
2023-09-27T22:04:40.405Z,54.70
2023-09-27T22:07:08.182Z,54.69
2023-09-27T22:09:35.752Z,54.82
2023-09-27T22:12:03.490Z,54.88
2023-09-27T22:14:31.540Z,55.08
2023-09-27T22:17:04.044Z,55.25
2023-09-27T22:19:31.606Z,55.13
2023-09-27T22:21:59.802Z,55.20
2023-09-27T22:24:31.781Z,55.44
2023-09-27T22:26:59.522Z,55.43
2023-09-27T22:29:26.899Z,55.55
2023-09-27T22:31:59.082Z,55.65
2023-09-27T22:34:35.686Z,55.68
2023-09-27T22:37:03.157Z,55.51
2023-09-27T22:39:32.798Z,55.58
2023-09-27T22:42:03.768Z,55.94
2023-09-27T22:44:34.298Z,56.19
2023-09-27T22:47:01.986Z,56.47
2023-09-27T22:49:29.469Z,56.58
2023-09-27T22:51:57.062Z,56.83
2023-09-27T22:54:24.502Z,56.81
2023-09-27T22:56:53.590Z,56.76
2023-09-27T22:59:22.951Z,56.97
2023-09-27T23:01:56.406Z,57.26
2023-09-27T23:04:24.792Z,57.55
2023-09-27T23:07:02.720Z,57.59
2023-09-27T23:09:37.293Z,57.49
2023-09-27T23:12:18.496Z,57.51
2023-09-27T23:15:04.989Z,57.77
2023-09-27T23:17:52.396Z,57.99
2023-09-27T23:20:28.798Z,58.30
2023-09-27T23:22:59.592Z,58.25
2023-09-27T23:25:40.452Z,57.98
2023-09-27T23:28:08.244Z,58.06
2023-09-27T23:30:35.819Z,58.22
2023-09-27T23:33:04.316Z,58.46
2023-09-27T23:35:32.481Z,58.70
2023-09-27T23:38:11.138Z,58.75
2023-09-27T23:40:43.065Z,58.65
2023-09-27T23:43:17.300Z,58.74
2023-09-27T23:45:46.872Z,58.93
2023-09-27T23:48:14.565Z,59.17
2023-09-27T23:50:42.480Z,59.35
2023-09-27T23:53:11.449Z,59.27
2023-09-27T23:55:42.570Z,59.18
2023-09-27T23:58:14.045Z,59.14
